createdAt,value
2023-03-17T00:00:44.428Z,100565.94
2023-03-17T00:03:18.846Z,100571.94
2023-03-17T00:05:45.506Z,100564.84
2023-03-17T00:08:18.585Z,100568.44
2023-03-17T00:10:45.095Z,100575.41
2023-03-17T00:13:12.509Z,100573.75
2023-03-17T00:15:39.240Z,100574.28
2023-03-17T00:18:13.790Z,100580.41
2023-03-17T00:20:40.437Z,100573.97
2023-03-17T00:23:14.526Z,100576.47
2023-03-17T00:25:41.009Z,100577.31
2023-03-17T00:28:16.013Z,100579.00
2023-03-17T00:30:42.495Z,100572.72
2023-03-17T00:33:11.655Z,100581.50
2023-03-17T00:35:38.932Z,100582.47
2023-03-17T00:38:06.989Z,100567.56
2023-03-17T00:40:33.647Z,100565.06
2023-03-17T00:43:00.159Z,100564.09
2023-03-17T00:45:27.009Z,100570.34
2023-03-17T00:47:55.041Z,100560.09
2023-03-17T00:50:25.539Z,100541.72
2023-03-17T00:52:54.489Z,100538.09
2023-03-17T00:55:21.939Z,100538.38
2023-03-17T00:57:49.233Z,100541.16
2023-03-17T01:00:21.802Z,100540.34
2023-03-17T01:02:48.792Z,100541.31
2023-03-17T01:05:15.699Z,100537.69
2023-03-17T01:07:45.893Z,100541.31
2023-03-17T01:10:16.315Z,100545.91
2023-03-17T01:12:43.556Z,100545.63
2023-03-17T01:15:10.349Z,100547.56
2023-03-17T01:17:36.868Z,100555.97
2023-03-17T01:20:03.950Z,100551.50
2023-03-17T01:22:30.434Z,100554.56
2023-03-17T01:24:58.275Z,100549.16
2023-03-17T01:27:24.803Z,100546.78
2023-03-17T01:29:52.612Z,100543.22
2023-03-17T01:32:19.108Z,100549.09
2023-03-17T01:34:45.653Z,100545.06
2023-03-17T01:37:12.194Z,100540.03
2023-03-17T01:39:38.657Z,100541.34
2023-03-17T01:42:07.250Z,100531.88
2023-03-17T01:44:33.796Z,100519.06
2023-03-17T01:47:00.380Z,100523.97
2023-03-17T01:49:30.659Z,100521.75
2023-03-17T01:52:02.673Z,100517.56
2023-03-17T01:54:35.673Z,100518.53
2023-03-17T01:57:07.155Z,100516.59
2023-03-17T01:59:39.312Z,100516.88
2023-03-17T02:02:09.544Z,100518.53
2023-03-17T02:04:38.173Z,100512.59
2023-03-17T02:07:05.248Z,100517.31
2023-03-17T02:09:33.819Z,100519.13
2023-03-17T02:12:02.323Z,100514.53
2023-03-17T02:14:29.145Z,100502.44
2023-03-17T02:16:57.012Z,100505.50
2023-03-17T02:19:23.536Z,100500.22
2023-03-17T02:21:53.750Z,100506.66
2023-03-17T02:24:27.802Z,100501.06
2023-03-17T02:26:57.778Z,100500.09
2023-03-17T02:29:24.719Z,100499.94
2023-03-17T02:31:51.697Z,100500.91
2023-03-17T02:34:18.235Z,100505.38
2023-03-17T02:36:44.791Z,100498.28
2023-03-17T02:39:12.899Z,100492.16
2023-03-17T02:41:39.384Z,100477.41
2023-03-17T02:44:06.013Z,100481.91
2023-03-17T02:46:32.638Z,100483.28
2023-03-17T02:48:59.603Z,100468.13
2023-03-17T02:51:26.252Z,100482.59
2023-03-17T02:53:52.772Z,100480.78
2023-03-17T02:56:20.631Z,100484.81
2023-03-17T02:58:47.134Z,100481.19
2023-03-17T03:01:13.704Z,100470.78
2023-03-17T03:03:40.162Z,100472.84
2023-03-17T03:06:07.167Z,100474.94
2023-03-17T03:08:33.873Z,100473.66
2023-03-17T03:11:00.424Z,100472.97
2023-03-17T03:13:28.504Z,100471.47
2023-03-17T03:15:55.002Z,100460.91
2023-03-17T03:18:21.593Z,100469.66
2023-03-17T03:20:48.103Z,100467.69
2023-03-17T03:23:15.199Z,100469.34
2023-03-17T03:25:42.294Z,100473.81
2023-03-17T03:28:09.143Z,100472.69
2023-03-17T03:30:37.860Z,100476.16
2023-03-17T03:33:04.884Z,100472.00
2023-03-17T03:35:32.157Z,100474.63
2023-03-17T03:37:59.630Z,100485.50
2023-03-17T03:40:26.354Z,100474.94
2023-03-17T03:42:52.942Z,100475.22
2023-03-17T03:45:19.598Z,100483.28
2023-03-17T03:47:47.428Z,100479.94
2023-03-17T03:50:14.355Z,100477.75
2023-03-17T03:52:40.858Z,100476.09
2023-03-17T03:55:08.296Z,100490.53
2023-03-17T03:57:35.112Z,100486.09
2023-03-17T04:00:02.080Z,100489.59
2023-03-17T04:02:28.624Z,100511.28
2023-03-17T04:04:56.605Z,100514.72
2023-03-17T04:07:23.251Z,100509.59
2023-03-17T04:09:49.813Z,100506.78
2023-03-17T04:12:17.114Z,100499.03
2023-03-17T04:14:43.774Z,100503.47
2023-03-17T04:17:10.554Z,100500.00
2023-03-17T04:19:37.198Z,100505.16
2023-03-17T04:22:05.328Z,100500.72
2023-03-17T04:24:31.830Z,100496.22
2023-03-17T04:26:58.336Z,100503.19
2023-03-17T04:29:24.790Z,100498.88
2023-03-17T04:31:51.315Z,100495.25
2023-03-17T04:34:19.007Z,100501.38
2023-03-17T04:36:46.816Z,100503.03
2023-03-17T04:39:14.983Z,100499.69
2023-03-17T04:41:41.765Z,100500.53
2023-03-17T04:44:08.496Z,100503.88
2023-03-17T04:46:35.762Z,100507.50
2023-03-17T04:49:02.394Z,100512.78
2023-03-17T04:51:28.910Z,100508.63
2023-03-17T04:53:55.376Z,100501.38
2023-03-17T04:56:23.189Z,100505.81
2023-03-17T04:58:49.649Z,100504.97
2023-03-17T05:01:16.212Z,100503.88
2023-03-17T05:03:42.725Z,100498.59
2023-03-17T05:06:09.404Z,100496.91
2023-03-17T05:08:35.914Z,100494.28
2023-03-17T05:11:02.650Z,100492.47
2023-03-17T05:13:30.498Z,100492.47
2023-03-17T05:15:57.073Z,100491.50
2023-03-17T05:18:25.296Z,100492.63
2023-03-17T05:20:51.973Z,100496.91
2023-03-17T05:23:18.738Z,100491.63
2023-03-17T05:25:45.284Z,100494.97
2023-03-17T05:28:11.760Z,100499.44
2023-03-17T05:30:39.609Z,100496.50
2023-03-17T05:33:06.256Z,100494.72
2023-03-17T05:35:32.919Z,100489.69
2023-03-17T05:37:59.488Z,100481.91
2023-03-17T05:40:25.965Z,100487.34
2023-03-17T05:42:52.546Z,100485.53
2023-03-17T05:45:19.106Z,100472.47
2023-03-17T05:47:46.965Z,100467.47
2023-03-17T05:50:13.489Z,100473.88
2023-03-17T05:52:40.191Z,100473.03
2023-03-17T05:55:07.535Z,100486.94
2023-03-17T05:57:34.239Z,100482.91
2023-03-17T06:00:00.702Z,100486.38
2023-03-17T06:02:27.252Z,100494.44
2023-03-17T06:04:55.192Z,100497.22
2023-03-17T06:07:21.688Z,100505.31
2023-03-17T06:09:48.304Z,100501.66
2023-03-17T06:12:14.825Z,100511.25
2023-03-17T06:14:41.344Z,100510.41
2023-03-17T06:17:08.245Z,100502.34
2023-03-17T06:19:34.711Z,100503.88
2023-03-17T06:22:02.546Z,100507.22
2023-03-17T06:24:29.026Z,100497.63
2023-03-17T06:26:55.718Z,100497.22
2023-03-17T06:29:22.221Z,100502.19
2023-03-17T06:31:48.759Z,100494.84
2023-03-17T06:34:15.228Z,100491.09
2023-03-17T06:36:41.714Z,100490.78
2023-03-17T06:39:09.607Z,100496.63
2023-03-17T06:41:36.075Z,100497.19
2023-03-17T06:44:02.579Z,100506.34
2023-03-17T06:46:29.031Z,100503.56
2023-03-17T06:48:55.544Z,100502.31
2023-03-17T06:51:22.178Z,100496.56
2023-03-17T06:53:48.698Z,100504.38
2023-03-17T06:56:29.101Z,100497.13
2023-03-17T06:58:56.279Z,100497.53
2023-03-17T07:01:22.822Z,100501.53
2023-03-17T07:03:49.435Z,100501.28
2023-03-17T07:06:16.060Z,100510.28
2023-03-17T07:08:42.589Z,100510.69
2023-03-17T07:11:09.091Z,100510.41
2023-03-17T07:13:36.946Z,100506.47
2023-03-17T07:16:04.182Z,100497.16
2023-03-17T07:18:31.174Z,100496.03
2023-03-17T07:20:57.901Z,100488.34
2023-03-17T07:23:24.603Z,100494.00
2023-03-17T07:25:51.225Z,100489.13
2023-03-17T07:28:17.710Z,100486.03
2023-03-17T07:30:45.671Z,100478.34
2023-03-17T07:33:12.385Z,100484.81
2023-03-17T07:35:38.991Z,100474.50
2023-03-17T07:38:05.869Z,100476.38
2023-03-17T07:40:34.876Z,100476.31
2023-03-17T07:43:02.132Z,100479.25
2023-03-17T07:45:28.929Z,100480.28
2023-03-17T07:47:56.981Z,100483.00
2023-03-17T07:50:23.470Z,100490.06
2023-03-17T07:52:49.995Z,100485.00
2023-03-17T07:55:16.597Z,100496.31
2023-03-17T07:57:43.144Z,100498.88
2023-03-17T08:00:11.518Z,100490.16
2023-03-17T08:02:38.359Z,100497.03
2023-03-17T08:05:07.337Z,100499.59
2023-03-17T08:07:33.978Z,100496.03
2023-03-17T08:10:00.539Z,100503.88
2023-03-17T08:12:27.093Z,100501.94
2023-03-17T08:14:53.580Z,100505.31
2023-03-17T08:17:20.121Z,100496.41
2023-03-17T08:19:46.795Z,100494.44
2023-03-17T08:22:14.659Z,100487.19
2023-03-17T08:24:41.210Z,100479.94
2023-03-17T08:27:07.855Z,100484.78
2023-03-17T08:29:34.509Z,100484.66
2023-03-17T08:32:01.354Z,100478.28
2023-03-17T08:34:27.869Z,100490.22
2023-03-17T08:36:54.349Z,100488.59
2023-03-17T08:39:22.445Z,100485.28
2023-03-17T08:41:49.055Z,100488.44
2023-03-17T08:44:15.588Z,100486.44
2023-03-17T08:46:42.135Z,100484.44
2023-03-17T08:49:10.191Z,100485.09
2023-03-17T08:51:38.568Z,100478.44
2023-03-17T08:54:06.241Z,100487.72
2023-03-17T08:56:34.271Z,100481.69
2023-03-17T08:59:00.846Z,100478.66
2023-03-17T09:01:27.573Z,100475.16
2023-03-17T09:03:55.100Z,100464.50
2023-03-17T09:06:22.544Z,100463.63
2023-03-17T09:08:49.782Z,100459.28
2023-03-17T09:11:18.442Z,100464.75
2023-03-17T09:13:47.060Z,100458.75
2023-03-17T09:16:14.350Z,100465.84
2023-03-17T09:18:41.008Z,100461.63
2023-03-17T09:21:08.256Z,100457.75
2023-03-17T09:23:34.812Z,100459.00
2023-03-17T09:26:01.493Z,100469.41
2023-03-17T09:28:28.119Z,100478.81
2023-03-17T09:30:59.175Z,100483.56
2023-03-17T09:33:25.665Z,100489.31
2023-03-17T09:35:52.342Z,100484.38
2023-03-17T09:38:18.872Z,100487.78
2023-03-17T09:40:49.121Z,100482.56
2023-03-17T09:43:26.613Z,100481.88
2023-03-17T09:45:54.277Z,100465.34
2023-03-17T09:48:35.881Z,100473.06
2023-03-17T09:51:04.994Z,100474.56
2023-03-17T09:53:35.132Z,100463.69
2023-03-17T09:56:07.180Z,100470.03
2023-03-17T09:58:35.392Z,100474.38
2023-03-17T10:01:03.052Z,100474.16
2023-03-17T10:03:31.909Z,100478.78
2023-03-17T10:06:28.344Z,100476.19
2023-03-17T10:09:00.547Z,100478.69
2023-03-17T10:11:37.424Z,100483.56
2023-03-17T10:14:11.045Z,100489.38
2023-03-17T10:16:42.266Z,100489.38
2023-03-17T10:19:20.237Z,100491.84
2023-03-17T10:21:51.369Z,100487.97
2023-03-17T10:24:19.162Z,100484.56
2023-03-17T10:26:48.724Z,100473.59
2023-03-17T10:29:17.339Z,100473.13
2023-03-17T10:31:43.895Z,100475.47
2023-03-17T10:34:16.514Z,100485.03
2023-03-17T10:36:46.102Z,100478.50
2023-03-17T10:39:14.984Z,100469.06
2023-03-17T10:41:51.744Z,100473.88
2023-03-17T10:44:27.021Z,100462.63
2023-03-17T10:46:55.553Z,100465.91
2023-03-17T10:49:23.653Z,100455.88
2023-03-17T10:51:52.343Z,100448.31
2023-03-17T10:54:20.286Z,100453.88
2023-03-17T10:56:49.157Z,100449.81
2023-03-17T10:59:19.667Z,100447.66
2023-03-17T11:01:52.001Z,100444.22
2023-03-17T11:04:32.805Z,100452.66
2023-03-17T11:07:00.949Z,100444.84
2023-03-17T11:09:33.828Z,100441.56
2023-03-17T11:12:02.766Z,100433.47
2023-03-17T11:14:29.231Z,100429.19
2023-03-17T11:16:57.754Z,100434.88
2023-03-17T11:19:36.998Z,100427.81
2023-03-17T11:22:09.219Z,100431.03
2023-03-17T11:24:46.947Z,100426.44
2023-03-17T11:27:21.084Z,100428.97
2023-03-17T11:30:14.832Z,100439.75
2023-03-17T11:32:44.901Z,100451.34
2023-03-17T11:35:32.381Z,100453.81
2023-03-17T11:38:24.228Z,100446.22
2023-03-17T11:41:08.378Z,100436.34
2023-03-17T11:43:42.531Z,100430.38
2023-03-17T11:46:11.323Z,100423.38
2023-03-17T11:48:49.025Z,100416.59
2023-03-17T11:51:23.476Z,100406.50
2023-03-17T11:54:09.715Z,100404.25
2023-03-17T11:56:42.522Z,100401.16
2023-03-17T11:59:17.376Z,100401.22
2023-03-17T12:01:51.321Z,100393.38
2023-03-17T12:04:23.961Z,100389.22
2023-03-17T12:06:57.160Z,100387.56
2023-03-17T12:09:30.180Z,100394.38
2023-03-17T12:11:58.529Z,100395.00
2023-03-17T12:14:29.334Z,100398.50
2023-03-17T12:17:02.543Z,100407.16
2023-03-17T12:19:37.567Z,100419.78
2023-03-17T12:22:09.138Z,100409.84
2023-03-17T12:24:40.151Z,100409.41
2023-03-17T12:27:12.985Z,100414.34
2023-03-17T12:29:42.860Z,100413.72
2023-03-17T12:32:17.283Z,100417.66
2023-03-17T12:34:50.314Z,100406.47
2023-03-17T12:37:19.483Z,100400.69
2023-03-17T12:39:52.268Z,100401.50
2023-03-17T12:42:29.264Z,100402.34
2023-03-17T12:45:18.505Z,100395.94
2023-03-17T12:47:58.285Z,100405.03
2023-03-17T12:50:40.584Z,100394.72
2023-03-17T12:53:28.417Z,100390.19
2023-03-17T12:55:59.132Z,100383.59
2023-03-17T12:58:34.858Z,100381.34
2023-03-17T13:01:11.790Z,100376.59
2023-03-17T13:03:55.900Z,100380.50
2023-03-17T13:06:24.309Z,100380.50
2023-03-17T13:08:53.145Z,100366.25
2023-03-17T13:11:27.286Z,100375.34
2023-03-17T13:14:14.189Z,100377.00
2023-03-17T13:16:41.885Z,100381.34
2023-03-17T13:19:20.801Z,100382.56
2023-03-17T13:22:17.598Z,100382.75
2023-03-17T13:24:48.404Z,100381.72
2023-03-17T13:27:43.580Z,100376.34
2023-03-17T13:30:43.203Z,100378.81
2023-03-17T13:33:19.358Z,100368.28
2023-03-17T13:35:58.194Z,100374.28
2023-03-17T13:39:04.879Z,100381.69
2023-03-17T13:41:57.676Z,100376.09
2023-03-17T13:44:38.838Z,100372.38
2023-03-17T13:47:28.009Z,100368.47
2023-03-17T13:49:58.065Z,100363.91
2023-03-17T13:52:27.560Z,100352.34
2023-03-17T13:55:01.923Z,100346.97
2023-03-17T13:57:29.751Z,100348.84
2023-03-17T14:00:01.567Z,100343.25
2023-03-17T14:02:31.270Z,100341.00
2023-03-17T14:05:00.364Z,100338.31
2023-03-17T14:07:31.109Z,100337.03
2023-03-17T14:09:59.971Z,100329.19
2023-03-17T14:12:33.367Z,100327.78
2023-03-17T14:15:03.732Z,100326.50
2023-03-17T14:17:34.784Z,100328.97
2023-03-17T14:20:06.974Z,100318.63
2023-03-17T14:22:39.631Z,100320.91
2023-03-17T14:25:13.981Z,100318.44
2023-03-17T14:27:40.611Z,100323.81
2023-03-17T14:30:17.842Z,100324.00
2023-03-17T14:32:47.723Z,100327.09
2023-03-17T14:35:14.716Z,100310.84
2023-03-17T14:37:41.291Z,100313.09
2023-03-17T14:40:21.008Z,100313.53
2023-03-17T14:42:47.583Z,100308.59
2023-03-17T14:45:22.488Z,100308.81
2023-03-17T14:47:50.208Z,100317.06
2023-03-17T14:50:22.804Z,100313.16
2023-03-17T14:52:50.194Z,100311.06
2023-03-17T14:55:17.203Z,100307.13
2023-03-17T14:57:49.503Z,100304.03
2023-03-17T15:00:30.942Z,100300.72
2023-03-17T15:02:59.365Z,100300.47
2023-03-17T15:05:30.199Z,100297.38
2023-03-17T15:07:57.177Z,100298.59
2023-03-17T15:10:26.465Z,100307.03
2023-03-17T15:13:01.426Z,100298.16
2023-03-17T15:15:32.512Z,100286.38
2023-03-17T15:18:02.908Z,100281.38
2023-03-17T15:20:29.991Z,100290.25
2023-03-17T15:22:59.091Z,100285.34
2023-03-17T15:25:32.876Z,100282.03
2023-03-17T15:28:00.209Z,100284.91
2023-03-17T15:30:29.441Z,100274.38
2023-03-17T15:33:01.695Z,100281.41
2023-03-17T15:35:28.542Z,100282.44
2023-03-17T15:37:55.532Z,100285.31
2023-03-17T15:40:22.091Z,100286.00
2023-03-17T15:42:48.628Z,100286.84
2023-03-17T15:45:16.026Z,100289.56
2023-03-17T15:47:43.782Z,100303.63
2023-03-17T15:50:16.674Z,100290.44
2023-03-17T15:52:44.202Z,100295.84
2023-03-17T15:55:16.354Z,100299.56
2023-03-17T15:57:48.251Z,100298.78
2023-03-17T16:00:21.442Z,100299.03
2023-03-17T16:02:50.453Z,100299.03
2023-03-17T16:05:20.912Z,100298.00
2023-03-17T16:07:47.545Z,100297.59
2023-03-17T16:10:19.808Z,100292.88
2023-03-17T16:12:46.725Z,100295.34
2023-03-17T16:15:23.147Z,100304.84
2023-03-17T16:17:52.459Z,100300.94
2023-03-17T16:20:24.784Z,100300.91
2023-03-17T16:22:53.115Z,100298.03
2023-03-17T16:25:23.528Z,100305.03
2023-03-17T16:27:50.355Z,100301.75
2023-03-17T16:30:18.584Z,100302.59
2023-03-17T16:32:45.329Z,100306.69
2023-03-17T16:35:17.136Z,100307.34
2023-03-17T16:37:45.742Z,100313.50
2023-03-17T16:40:17.819Z,100307.53
2023-03-17T16:42:44.571Z,100312.69
2023-03-17T16:45:16.850Z,100308.75
2023-03-17T16:47:43.334Z,100327.50
2023-03-17T16:50:15.218Z,100320.31
2023-03-17T16:52:41.865Z,100328.53
2023-03-17T16:55:10.344Z,100321.09
2023-03-17T16:57:37.870Z,100324.41
2023-03-17T17:00:06.234Z,100324.41
2023-03-17T17:02:32.974Z,100334.91
2023-03-17T17:04:59.482Z,100340.88
2023-03-17T17:07:26.041Z,100333.84
2023-03-17T17:09:52.515Z,100340.00
2023-03-17T17:12:20.308Z,100341.88
2023-03-17T17:14:46.779Z,100350.72
2023-03-17T17:17:13.790Z,100356.25
2023-03-17T17:19:40.286Z,100364.06
2023-03-17T17:22:06.791Z,100366.34
2023-03-17T17:24:33.291Z,100374.13
2023-03-17T17:26:59.769Z,100367.28
2023-03-17T17:29:27.709Z,100363.38
2023-03-17T17:31:54.443Z,100363.13
2023-03-17T17:34:20.998Z,100355.69
2023-03-17T17:36:47.569Z,100367.81
2023-03-17T17:39:14.045Z,100371.53
2023-03-17T17:41:40.544Z,100379.94
2023-03-17T17:44:07.064Z,100376.03
2023-03-17T17:46:34.905Z,100377.63
2023-03-17T17:49:01.454Z,100383.56
2023-03-17T17:51:27.982Z,100387.03
2023-03-17T17:53:54.525Z,100390.28
2023-03-17T17:56:21.046Z,100388.41
2023-03-17T17:58:47.692Z,100391.88
2023-03-17T18:01:14.463Z,100397.34
2023-03-17T18:03:42.348Z,100406.16
2023-03-17T18:06:09.099Z,100395.38
2023-03-17T18:08:36.951Z,100404.38
2023-03-17T18:11:03.441Z,100397.16
2023-03-17T18:13:29.961Z,100402.22
2023-03-17T18:15:56.432Z,100407.94
2023-03-17T18:18:22.985Z,100409.56
2023-03-17T18:20:51.098Z,100405.75
2023-03-17T18:23:17.614Z,100412.06
2023-03-17T18:25:44.095Z,100406.66
2023-03-17T18:28:10.627Z,100414.78
2023-03-17T18:30:37.602Z,100414.91
2023-03-17T18:33:07.327Z,100421.19
2023-03-17T18:35:34.280Z,100410.41
2023-03-17T18:38:02.396Z,100413.84
2023-03-17T18:40:29.418Z,100417.28
2023-03-17T18:42:55.933Z,100413.50
2023-03-17T18:45:22.617Z,100414.88
2023-03-17T18:47:49.154Z,100408.47
2023-03-17T18:50:16.828Z,100409.84
2023-03-17T18:52:44.161Z,100406.75
2023-03-17T18:55:13.901Z,100407.75
2023-03-17T18:57:43.094Z,100412.63
2023-03-17T19:00:12.474Z,100412.97
2023-03-17T19:02:39.186Z,100417.66
2023-03-17T19:05:06.521Z,100411.72
2023-03-17T19:07:33.455Z,100411.06
2023-03-17T19:10:00.304Z,100409.78
2023-03-17T19:12:28.289Z,100410.13
2023-03-17T19:14:54.769Z,100408.03
2023-03-17T19:17:21.256Z,100411.06
2023-03-17T19:19:47.820Z,100410.81
2023-03-17T19:22:14.394Z,100415.66
2023-03-17T19:24:40.938Z,100418.34
2023-03-17T19:27:07.496Z,100420.34
2023-03-17T19:29:35.330Z,100420.53
2023-03-17T19:32:01.863Z,100422.38
2023-03-17T19:34:28.373Z,100425.22
2023-03-17T19:36:55.023Z,100426.03
2023-03-17T19:39:22.104Z,100414.53
2023-03-17T19:41:48.691Z,100415.19
2023-03-17T19:44:15.204Z,100416.03
2023-03-17T19:46:43.042Z,100425.69
2023-03-17T19:49:09.799Z,100427.53
2023-03-17T19:51:36.354Z,100424.03
2023-03-17T19:54:03.175Z,100420.34
2023-03-17T19:56:29.713Z,100418.50
2023-03-17T19:58:56.199Z,100424.84
2023-03-17T20:01:22.777Z,100423.19
2023-03-17T20:03:50.759Z,100421.72
2023-03-17T20:06:17.265Z,100425.56
2023-03-17T20:08:44.326Z,100417.75
2023-03-17T20:11:12.356Z,100426.94
2023-03-17T20:13:39.857Z,100423.44
2023-03-17T20:16:08.666Z,100434.09
2023-03-17T20:18:35.432Z,100434.09
2023-03-17T20:21:04.556Z,100429.78
2023-03-17T20:23:31.390Z,100439.63
2023-03-17T20:25:58.075Z,100434.09
2023-03-17T20:28:24.781Z,100431.44
2023-03-17T20:30:51.302Z,100434.75
2023-03-17T20:33:18.132Z,100442.75
2023-03-17T20:35:45.993Z,100447.09
2023-03-17T20:38:14.117Z,100447.72
2023-03-17T20:40:40.603Z,100454.72
2023-03-17T20:43:07.223Z,100464.22
2023-03-17T20:45:33.870Z,100455.38
2023-03-17T20:48:00.371Z,100460.34
2023-03-17T20:50:26.889Z,100459.81
2023-03-17T20:52:53.379Z,100461.94
2023-03-17T20:55:21.293Z,100456.59
2023-03-17T20:57:47.755Z,100461.94
2023-03-17T21:00:16.421Z,100467.09
2023-03-17T21:02:42.965Z,100465.25
2023-03-17T21:05:13.259Z,100472.25
2023-03-17T21:07:39.710Z,100478.41
2023-03-17T21:10:06.629Z,100473.44
2023-03-17T21:12:34.459Z,100477.22
2023-03-17T21:15:00.934Z,100476.03
2023-03-17T21:17:27.706Z,100466.16
2023-03-17T21:19:54.182Z,100466.16
2023-03-17T21:22:20.734Z,100457.34
2023-03-17T21:24:47.215Z,100459.19
2023-03-17T21:27:13.717Z,100466.16
2023-03-17T21:29:41.594Z,100470.69
2023-03-17T21:32:08.193Z,100471.72
2023-03-17T21:34:35.730Z,100469.03
2023-03-17T21:37:02.247Z,100466.16
2023-03-17T21:39:29.822Z,100478.69
2023-03-17T21:41:57.196Z,100475.00
2023-03-17T21:44:24.270Z,100465.16
2023-03-17T21:46:52.206Z,100464.78
2023-03-17T21:49:18.730Z,100460.94
2023-03-17T21:51:46.552Z,100476.75
2023-03-17T21:54:13.812Z,100483.00
2023-03-17T21:56:40.447Z,100489.34
2023-03-17T21:59:07.548Z,100485.69
2023-03-17T22:01:34.169Z,100476.66
2023-03-17T22:04:02.020Z,100480.16
2023-03-17T22:06:28.575Z,100482.84
2023-03-17T22:08:55.274Z,100485.31
2023-03-17T22:11:21.952Z,100485.50
2023-03-17T22:13:48.617Z,100490.00
2023-03-17T22:16:16.444Z,100491.03
2023-03-17T22:18:43.512Z,100494.69
2023-03-17T22:21:11.374Z,100487.53
2023-03-17T22:23:38.583Z,100485.03
2023-03-17T22:26:05.498Z,100488.09
2023-03-17T22:28:31.986Z,100487.25
2023-03-17T22:30:58.461Z,100494.44
2023-03-17T22:33:24.966Z,100494.78
2023-03-17T22:35:51.473Z,100496.81
2023-03-17T22:38:19.582Z,100496.44
2023-03-17T22:40:46.055Z,100491.28
2023-03-17T22:43:12.566Z,100496.81
2023-03-17T22:45:39.166Z,100505.16
2023-03-17T22:48:06.146Z,100508.84
2023-03-17T22:50:32.922Z,100505.56
2023-03-17T22:52:59.624Z,100510.25
2023-03-17T22:55:27.502Z,100520.91
2023-03-17T22:57:54.054Z,100517.75
2023-03-17T23:00:21.141Z,100512.16
2023-03-17T23:02:51.402Z,100511.69
2023-03-17T23:05:17.971Z,100523.72
2023-03-17T23:07:51.910Z,100531.06
2023-03-17T23:10:20.541Z,100523.59
2023-03-17T23:12:48.713Z,100528.00
2023-03-17T23:15:15.339Z,100531.34
2023-03-17T23:17:42.083Z,100530.59
2023-03-17T23:20:09.995Z,100522.66
2023-03-17T23:22:36.465Z,100522.53
2023-03-17T23:25:03.215Z,100515.91
2023-03-17T23:27:29.925Z,100519.09
2023-03-17T23:29:57.742Z,100522.13
2023-03-17T23:32:24.205Z,100516.34
2023-03-17T23:34:50.745Z,100513.00
2023-03-17T23:37:17.205Z,100524.84
2023-03-17T23:39:43.697Z,100527.50
2023-03-17T23:42:10.163Z,100529.50
2023-03-17T23:44:36.645Z,100525.34
2023-03-17T23:47:04.754Z,100521.22
2023-03-17T23:49:31.233Z,100515.41
2023-03-17T23:51:57.663Z,100522.41
2023-03-17T23:54:24.247Z,100525.25
2023-03-17T23:56:50.724Z,100527.91
2023-03-17T23:59:17.205Z,100518.25
